Time;durP1;ratioP1;P1;durP2;ratioP2;P2;SDS_P1;SDS_P2;PMS_P1;PMS_P2;Temp;Humidity;BMP_temperature;BMP_pressure;BME280_temperature;BME280_humidity;BME280_pressure;Samples;Min_cycle;Max_cycle;Signal;HPM_P1;HPM_P2
2021/07/21 00:01:14;;;;;;;0.20;0.20;;;;;;;;;;5037781;28;20041;-80
2021/07/21 00:03:40;;;;;;;0.20;0.20;;;;;;;;;;5037195;28;20029;-80
2021/07/21 00:06:06;;;;;;;0.10;0.10;;;;;;;;;;5036589;28;20049;-80
2021/07/21 00:08:33;;;;;;;0.65;0.30;;;;;;;;;;5036925;28;20041;-80
2021/07/21 00:13:43;;;;;;;0.25;0.25;;;;;;;;;;5036757;28;20543;-80
2021/07/21 00:16:18;;;;;;;0.98;0.63;;;;;;;;;;5036260;28;20046;-80
2021/07/21 00:18:50;;;;;;;0.40;0.40;;;;;;;;;;5035519;28;20555;-80
2021/07/21 00:21:18;;;;;;;0.40;0.40;;;;;;;;;;5036550;28;20037;-80
2021/07/21 00:23:44;;;;;;;0.82;0.60;;;;;;;;;;5035156;28;20046;-80
2021/07/21 00:26:10;;;;;;;0.20;0.20;;;;;;;;;;5036469;28;20041;-80
2021/07/21 00:28:39;;;;;;;0.20;0.20;;;;;;;;;;5036356;28;20099;-80
2021/07/21 00:31:05;;;;;;;0.40;0.40;;;;;;;;;;5036117;28;20431;-80
2021/07/21 00:33:31;;;;;;;0.20;0.20;;;;;;;;;;5036285;28;20041;-81
2021/07/21 00:35:57;;;;;;;0.30;0.30;;;;;;;;;;5036085;28;20063;-80
2021/07/21 00:38:24;;;;;;;0.20;0.20;;;;;;;;;;5036189;28;20041;-80
2021/07/21 00:40:51;;;;;;;0.22;0.22;;;;;;;;;;5035893;28;20488;-80
2021/07/21 00:43:17;;;;;;;1.10;0.40;;;;;;;;;;5034835;28;20134;-80
2021/07/21 00:45:43;;;;;;;0.30;0.30;;;;;;;;;;5035980;28;20050;-80
2021/07/21 00:48:09;;;;;;;0.20;0.20;;;;;;;;;;5036007;28;20068;-80
2021/07/21 00:50:36;;;;;;;0.35;0.35;;;;;;;;;;5035915;28;20120;-80
2021/07/21 00:53:02;;;;;;;0.40;0.40;;;;;;;;;;5035892;28;20048;-80
2021/07/21 00:55:28;;;;;;;0.10;0.10;;;;;;;;;;5035984;28;20125;-80
2021/07/21 00:57:58;;;;;;;0.52;0.52;;;;;;;;;;5035873;28;20473;-80
2021/07/21 01:00:24;;;;;;;0.10;0.10;;;;;;;;;;5035848;28;20044;-80
2021/07/21 01:02:51;;;;;;;0.75;0.40;;;;;;;;;;5035666;28;20281;-80
2021/07/21 01:05:19;;;;;;;0.20;0.20;;;;;;;;;;5034523;28;20120;-80
2021/07/21 01:07:46;;;;;;;0.60;0.20;;;;;;;;;;5034273;28;20132;-80
2021/07/21 01:10:13;;;;;;;0.13;0.13;;;;;;;;;;5035907;28;20072;-79
2021/07/21 01:12:41;;;;;;;0.40;0.40;;;;;;;;;;5035269;28;20504;-80
2021/07/21 01:15:07;;;;;;;0.50;0.50;;;;;;;;;;5033945;28;20033;-79
2021/07/21 01:17:51;;;;;;;0.30;0.30;;;;;;;;;;5035608;28;20132;-80
2021/07/21 01:20:28;;;;;;;0.20;0.20;;;;;;;;;;5035296;28;20041;-80
2021/07/21 01:23:17;;;;;;;0.28;0.28;;;;;;;;;;5035145;28;20049;-80
2021/07/21 01:25:56;;;;;;;0.35;0.35;;;;;;;;;;5037407;28;20045;-81
2021/07/21 01:28:23;;;;;;;0.65;0.43;;;;;;;;;;5035287;28;20034;-81
2021/07/21 01:30:50;;;;;;;0.25;0.25;;;;;;;;;;5035514;28;20041;-80
2021/07/21 01:33:17;;;;;;;0.20;0.20;;;;;;;;;;5033854;28;20046;-81
2021/07/21 01:35:51;;;;;;;0.20;0.20;;;;;;;;;;5034977;28;20041;-80
2021/07/21 01:38:21;;;;;;;0.20;0.20;;;;;;;;;;5035377;28;20046;-81
2021/07/21 01:40:51;;;;;;;0.38;0.38;;;;;;;;;;5035073;28;20038;-81
2021/07/21 01:43:19;;;;;;;0.32;0.32;;;;;;;;;;5033698;28;20508;-80
2021/07/21 01:45:46;;;;;;;0.10;0.10;;;;;;;;;;5034912;28;20523;-80
2021/07/21 01:48:14;;;;;;;0.43;0.43;;;;;;;;;;5034745;28;20069;-80
2021/07/21 01:50:40;;;;;;;0.20;0.20;;;;;;;;;;5034600;28;20072;-80
2021/07/21 01:53:06;;;;;;;0.38;0.38;;;;;;;;;;5034820;28;20075;-80
2021/07/21 01:55:33;;;;;;;0.30;0.30;;;;;;;;;;5034797;28;20484;-80
2021/07/21 01:57:59;;;;;;;0.20;0.20;;;;;;;;;;5035019;28;20037;-80
2021/07/21 02:00:26;;;;;;;0.40;0.40;;;;;;;;;;5033227;28;20049;-80
2021/07/21 02:02:54;;;;;;;0.30;0.30;;;;;;;;;;5034553;28;20152;-80
2021/07/21 02:05:21;;;;;;;0.20;0.20;;;;;;;;;;5034458;28;20045;-80
2021/07/21 02:07:48;;;;;;;0.40;0.40;;;;;;;;;;5034471;28;20370;-80
2021/07/21 02:10:19;;;;;;;0.10;0.10;;;;;;;;;;5033051;28;20516;-80
2021/07/21 02:12:45;;;;;;;;;;;;;;;;;;5035130;28;20057;-79
2021/07/21 02:15:11;;;;;;;0.10;0.10;;;;;;;;;;5033026;28;19959;-80
2021/07/21 02:17:41;;;;;;;0.13;0.13;;;;;;;;;;5032913;28;20075;-80
2021/07/21 02:20:08;;;;;;;0.10;0.10;;;;;;;;;;5032844;28;20042;-80
2021/07/21 02:22:35;;;;;;;0.20;0.20;;;;;;;;;;5033560;28;20045;-80
2021/07/21 02:25:01;;;;;;;0.10;0.10;;;;;;;;;;5034245;28;20048;-81
2021/07/21 02:27:28;;;;;;;0.20;0.20;;;;;;;;;;5034795;28;20045;-80
2021/07/21 02:29:54;;;;;;;0.63;0.38;;;;;;;;;;5034203;28;20088;-80
2021/07/21 02:32:25;;;;;;;0.10;0.10;;;;;;;;;;5034626;28;20042;-80
2021/07/21 02:34:52;;;;;;;0.20;0.20;;;;;;;;;;5034372;28;20116;-80
2021/07/21 02:37:19;;;;;;;0.20;0.20;;;;;;;;;;5032811;28;20099;-80
2021/07/21 02:39:46;;;;;;;0.20;0.20;;;;;;;;;;5032809;28;20037;-80
2021/07/21 02:42:13;;;;;;;0.10;0.10;;;;;;;;;;5034298;28;20045;-80
2021/07/21 02:44:39;;;;;;;0.10;0.10;;;;;;;;;;5033959;28;20447;-80
2021/07/21 02:47:05;;;;;;;0.22;0.22;;;;;;;;;;5034222;28;20046;-80
2021/07/21 02:49:32;;;;;;;4.15;0.55;;;;;;;;;;5032272;28;20049;-80
2021/07/21 02:52:12;;;;;;;0.28;0.28;;;;;;;;;;5034113;28;20492;-80
2021/07/21 02:54:38;;;;;;;0.20;0.20;;;;;;;;;;5032717;28;20232;-80
2021/07/21 02:57:27;;;;;;;0.20;0.20;;;;;;;;;;5034151;28;20079;-80
2021/07/21 02:59:55;;;;;;;0.25;0.25;;;;;;;;;;5036090;28;20124;-80
2021/07/21 03:02:26;;;;;;;0.10;0.10;;;;;;;;;;5032871;28;20088;-80
2021/07/21 03:04:54;;;;;;;0.50;0.50;;;;;;;;;;5034042;28;20070;-80
2021/07/21 03:07:21;;;;;;;0.40;0.40;;;;;;;;;;5034478;28;20041;-80
2021/07/21 03:09:48;;;;;;;0.10;0.10;;;;;;;;;;5034638;28;20468;-81
2021/07/21 03:12:17;;;;;;;0.25;0.25;;;;;;;;;;5033994;28;20037;-80
2021/07/21 03:14:43;;;;;;;0.25;0.25;;;;;;;;;;5033823;28;20053;-80
2021/07/21 03:17:13;;;;;;;0.30;0.30;;;;;;;;;;5033926;28;20091;-80
2021/07/21 03:19:42;;;;;;;0.40;0.40;;;;;;;;;;5033799;28;20049;-80
2021/07/21 03:22:09;;;;;;;0.40;0.40;;;;;;;;;;5033879;28;20343;-80
2021/07/21 03:24:35;;;;;;;0.30;0.20;;;;;;;;;;5034168;28;20042;-80
2021/07/21 03:27:02;;;;;;;0.30;0.30;;;;;;;;;;5033580;28;20408;-80
2021/07/21 03:29:29;;;;;;;0.20;0.20;;;;;;;;;;5036790;28;20037;-80
2021/07/21 03:31:56;;;;;;;0.35;0.35;;;;;;;;;;5036139;28;20045;-80
2021/07/21 03:34:23;;;;;;;0.43;0.40;;;;;;;;;;5036923;28;20087;-79
2021/07/21 03:36:50;;;;;;;0.20;0.20;;;;;;;;;;5036031;28;20052;-80
2021/07/21 03:39:17;;;;;;;0.45;0.45;;;;;;;;;;5037297;28;20041;-80
2021/07/21 03:41:43;;;;;;;0.38;0.38;;;;;;;;;;5035989;28;20041;-79
2021/07/21 03:44:11;;;;;;;0.45;0.45;;;;;;;;;;5035970;28;20040;-80
2021/07/21 03:46:38;;;;;;;0.25;0.25;;;;;;;;;;5036773;28;20049;-80
2021/07/21 03:49:04;;;;;;;0.43;0.30;;;;;;;;;;5036696;28;20041;-80
2021/07/21 03:51:34;;;;;;;0.20;0.20;;;;;;;;;;5037308;28;20045;-79
2021/07/21 03:54:02;;;;;;;0.30;0.30;;;;;;;;;;5036834;28;20044;-80
2021/07/21 03:56:29;;;;;;;0.22;0.22;;;;;;;;;;5037434;28;20496;-79
2021/07/21 03:58:55;;;;;;;0.10;0.10;;;;;;;;;;5036916;28;20060;-79
2021/07/21 04:01:22;;;;;;;0.20;0.20;;;;;;;;;;5035370;28;20063;-80
2021/07/21 04:03:49;;;;;;;0.10;0.10;;;;;;;;;;5036932;28;20128;-79
2021/07/21 04:06:17;;;;;;;0.45;0.45;;;;;;;;;;5036279;28;20168;-79
2021/07/21 04:08:43;;;;;;;0.20;0.20;;;;;;;;;;5036771;28;20038;-79
2021/07/21 04:11:12;;;;;;;0.28;0.28;;;;;;;;;;5036775;28;20488;-79
2021/07/21 04:13:39;;;;;;;0.10;0.10;;;;;;;;;;5036255;28;20053;-79
2021/07/21 04:16:06;;;;;;;0.10;0.10;;;;;;;;;;5035371;28;20040;-80
2021/07/21 04:18:33;;;;;;;0.65;0.52;;;;;;;;;;5036707;28;20041;-80
2021/07/21 04:20:59;;;;;;;0.10;0.10;;;;;;;;;;5034849;28;20049;-80
2021/07/21 04:23:26;;;;;;;0.30;0.30;;;;;;;;;;5036505;28;20079;-80
2021/07/21 04:25:53;;;;;;;0.30;0.20;;;;;;;;;;5036378;28;20056;-80
2021/07/21 04:28:20;;;;;;;0.20;0.20;;;;;;;;;;5036644;28;20048;-80
2021/07/21 04:30:46;;;;;;;0.17;0.17;;;;;;;;;;5036578;28;20501;-80
2021/07/21 04:33:12;;;;;;;0.13;0.13;;;;;;;;;;5036320;28;20025;-80
2021/07/21 04:35:39;;;;;;;0.10;0.10;;;;;;;;;;5035849;28;20045;-80
2021/07/21 04:38:05;;;;;;;1.25;0.40;;;;;;;;;;5036227;28;20029;-80
2021/07/21 04:40:32;;;;;;;0.10;0.10;;;;;;;;;;5035950;28;20095;-80
2021/07/21 04:42:58;;;;;;;0.35;0.35;;;;;;;;;;5034808;28;20029;-79
2021/07/21 04:45:24;;;;;;;0.30;0.30;;;;;;;;;;5036285;28;20049;-80
2021/07/21 04:47:53;;;;;;;0.85;0.85;;;;;;;;;;5034709;28;20030;-80
2021/07/21 04:50:20;;;;;;;0.30;0.30;;;;;;;;;;5035733;28;20512;-80
2021/07/21 04:52:46;;;;;;;0.20;0.20;;;;;;;;;;5035926;28;20047;-80
2021/07/21 04:55:12;;;;;;;1.50;0.45;;;;;;;;;;5035731;28;20040;-80
2021/07/21 04:57:38;;;;;;;0.20;0.20;;;;;;;;;;5035522;28;20546;-79
2021/07/21 05:00:06;;;;;;;0.13;0.13;;;;;;;;;;5035862;28;20118;-80
2021/07/21 05:02:32;;;;;;;0.30;0.30;;;;;;;;;;5035745;28;20125;-80
2021/07/21 05:04:58;;;;;;;1.27;0.32;;;;;;;;;;5035823;28;20175;-80
2021/07/21 05:07:24;;;;;;;0.28;0.28;;;;;;;;;;5034923;28;20485;-80
2021/07/21 05:09:50;;;;;;;0.30;0.30;;;;;;;;;;5034070;28;20132;-79
2021/07/21 05:12:17;;;;;;;0.20;0.20;;;;;;;;;;5033926;28;20033;-80
2021/07/21 05:14:43;;;;;;;0.20;0.20;;;;;;;;;;5033798;28;20416;-80
2021/07/21 05:17:09;;;;;;;3.53;1.05;;;;;;;;;;5035436;28;20047;-80
2021/07/21 05:19:35;;;;;;;0.20;0.20;;;;;;;;;;5033792;28;20081;-80
2021/07/21 05:22:01;;;;;;;0.40;0.40;;;;;;;;;;5035586;28;20038;-80
2021/07/21 05:24:27;;;;;;;0.28;0.28;;;;;;;;;;5035588;28;20049;-80
2021/07/21 05:26:53;;;;;;;0.10;0.10;;;;;;;;;;5035164;28;20131;-79
2021/07/21 05:29:19;;;;;;;0.30;0.30;;;;;;;;;;5035280;28;20045;-80
2021/07/21 05:31:46;;;;;;;0.50;0.50;;;;;;;;;;5035461;28;20044;-80
2021/07/21 05:34:12;;;;;;;0.10;0.10;;;;;;;;;;5034735;28;20111;-79
2021/07/21 05:36:38;;;;;;;0.20;0.20;;;;;;;;;;5034850;28;20037;-80
2021/07/21 05:39:09;;;;;;;0.20;0.20;;;;;;;;;;5035219;28;20128;-79
2021/07/21 05:41:35;;;;;;;0.20;0.20;;;;;;;;;;5035682;28;20034;-80
2021/07/21 05:44:02;;;;;;;0.38;0.38;;;;;;;;;;5035010;28;20049;-80
2021/07/21 05:46:28;;;;;;;0.43;0.43;;;;;;;;;;5033846;28;20522;-80
2021/07/21 05:48:54;;;;;;;0.17;0.17;;;;;;;;;;5034461;28;20105;-79
2021/07/21 05:51:20;;;;;;;0.25;0.25;;;;;;;;;;5034519;28;20052;-79
2021/07/21 05:53:46;;;;;;;0.40;0.40;;;;;;;;;;5034961;28;20037;-80
2021/07/21 05:56:15;;;;;;;0.80;0.38;;;;;;;;;;5035080;28;20064;-79
2021/07/21 05:58:42;;;;;;;0.20;0.20;;;;;;;;;;5034461;28;20485;-80
2021/07/21 06:01:08;;;;;;;0.20;0.20;;;;;;;;;;5033181;28;20034;-80
2021/07/21 06:03:34;;;;;;;0.45;0.45;;;;;;;;;;5033457;28;20048;-80
2021/07/21 06:06:00;;;;;;;0.32;0.32;;;;;;;;;;5034472;28;20041;-80
2021/07/21 06:08:26;;;;;;;0.30;0.30;;;;;;;;;;5034890;28;20115;-80
2021/07/21 06:10:53;;;;;;;0.28;0.25;;;;;;;;;;5034726;28;20041;-80
2021/07/21 06:13:21;;;;;;;0.47;0.47;;;;;;;;;;5033035;28;20057;-80
2021/07/21 06:15:47;;;;;;;0.75;0.75;;;;;;;;;;5032262;28;20172;-80
2021/07/21 06:18:13;;;;;;;0.20;0.20;;;;;;;;;;5032209;28;20040;-80
2021/07/21 06:20:39;;;;;;;1.90;1.00;;;;;;;;;;5033041;28;20382;-81
2021/07/21 06:23:06;;;;;;;0.25;0.25;;;;;;;;;;5034474;28;20037;-80
2021/07/21 06:25:32;;;;;;;0.30;0.30;;;;;;;;;;5034404;28;20037;-80
2021/07/21 06:27:58;;;;;;;0.10;0.10;;;;;;;;;;5033121;28;20073;-80
2021/07/21 06:30:24;;;;;;;0.20;0.20;;;;;;;;;;5034453;28;20041;-80
2021/07/21 06:32:50;;;;;;;0.30;0.30;;;;;;;;;;5034333;28;20040;-80
2021/07/21 06:35:17;;;;;;;0.75;0.75;;;;;;;;;;5033947;28;20045;-79
2021/07/21 06:37:43;;;;;;;0.20;0.20;;;;;;;;;;5033708;28;20052;-80
2021/07/21 06:40:09;;;;;;;0.32;0.32;;;;;;;;;;5034050;28;20033;-80
2021/07/21 06:42:36;;;;;;;0.30;0.30;;;;;;;;;;5034066;28;20042;-80
2021/07/21 06:45:02;;;;;;;0.30;0.30;;;;;;;;;;5033967;28;20149;-80
2021/07/21 06:47:28;;;;;;;0.57;0.57;;;;;;;;;;5032503;28;20509;-80
2021/07/21 06:49:54;;;;;;;0.20;0.20;;;;;;;;;;5034143;28;20045;-80
2021/07/21 06:52:22;;;;;;;0.65;0.65;;;;;;;;;;5034142;28;20041;-76
2021/07/21 06:54:49;;;;;;;0.40;0.40;;;;;;;;;;5033992;28;20030;-74
2021/07/21 06:57:15;;;;;;;0.25;0.25;;;;;;;;;;5033362;28;20049;-74
2021/07/21 06:59:41;;;;;;;0.20;0.20;;;;;;;;;;5032940;28;20136;-74
2021/07/21 07:02:07;;;;;;;0.38;0.38;;;;;;;;;;5033987;28;20152;-74
2021/07/21 07:04:34;;;;;;;0.55;0.55;;;;;;;;;;5037385;28;20040;-73
2021/07/21 07:07:00;;;;;;;0.30;0.30;;;;;;;;;;5037770;28;20104;-74
2021/07/21 07:09:26;;;;;;;0.30;0.30;;;;;;;;;;5035532;28;20464;-74
2021/07/21 07:11:54;;;;;;;0.40;0.40;;;;;;;;;;5036115;28;20045;-74
2021/07/21 07:14:20;;;;;;;0.30;0.30;;;;;;;;;;5037220;28;20088;-73
2021/07/21 07:16:47;;;;;;;0.20;0.20;;;;;;;;;;5032486;28;20090;-72
2021/07/21 07:19:13;;;;;;;0.35;0.35;;;;;;;;;;5036485;28;20045;-74
2021/07/21 07:21:39;;;;;;;0.28;0.28;;;;;;;;;;5035498;28;20635;-74
2021/07/21 07:24:06;;;;;;;0.30;0.30;;;;;;;;;;5035769;28;20077;-74
2021/07/21 07:26:34;;;;;;;0.22;0.22;;;;;;;;;;5037086;28;20578;-74
2021/07/21 07:29:01;;;;;;;0.52;0.52;;;;;;;;;;5031155;28;20034;-73
2021/07/21 07:31:27;;;;;;;0.30;0.30;;;;;;;;;;5017154;28;20133;-72
2021/07/21 07:33:53;;;;;;;0.30;0.30;;;;;;;;;;5016811;28;20144;-72
2021/07/21 07:36:19;;;;;;;1.27;1.05;;;;;;;;;;5017520;28;20500;-71
2021/07/21 07:38:45;;;;;;;0.40;0.40;;;;;;;;;;5017352;28;20112;-72
2021/07/21 07:41:11;;;;;;;0.95;0.95;;;;;;;;;;5017531;28;20057;-72
2021/07/21 07:43:39;;;;;;;0.68;0.68;;;;;;;;;;5017366;28;20041;-72
2021/07/21 07:46:06;;;;;;;0.80;0.80;;;;;;;;;;5017335;28;20042;-72
2021/07/21 07:48:32;;;;;;;1.00;0.52;;;;;;;;;;5017296;28;20044;-72
2021/07/21 07:50:58;;;;;;;0.20;0.20;;;;;;;;;;5018029;28;20038;-72
2021/07/21 07:53:24;;;;;;;0.40;0.40;;;;;;;;;;5017276;28;20046;-72
2021/07/21 07:55:50;;;;;;;0.93;0.88;;;;;;;;;;5017136;28;20049;-72
2021/07/21 07:58:17;;;;;;;0.20;0.20;;;;;;;;;;5017073;28;20123;-72
2021/07/21 08:00:43;;;;;;;0.20;0.20;;;;;;;;;;5017322;28;20433;-72
2021/07/21 08:03:09;;;;;;;0.40;0.40;;;;;;;;;;5016251;28;20046;-72
2021/07/21 08:05:36;;;;;;;0.25;0.25;;;;;;;;;;5016273;28;20041;-72
2021/07/21 08:08:03;;;;;;;0.13;0.13;;;;;;;;;;5015007;28;20489;-72
2021/07/21 08:10:29;;;;;;;0.50;0.50;;;;;;;;;;5015214;28;20117;-72
2021/07/21 08:12:55;;;;;;;0.35;0.35;;;;;;;;;;5016528;28;20058;-72
2021/07/21 08:15:21;;;;;;;0.20;0.20;;;;;;;;;;5016165;28;20045;-72
2021/07/21 08:17:48;;;;;;;0.20;0.20;;;;;;;;;;5017318;28;20065;-72
2021/07/21 08:20:14;;;;;;;3.60;0.43;;;;;;;;;;5016807;28;20042;-73
2021/07/21 08:22:40;;;;;;;0.55;0.55;;;;;;;;;;5016762;28;20045;-72
2021/07/21 08:25:07;;;;;;;0.32;0.32;;;;;;;;;;5016397;28;20056;-72
2021/07/21 08:27:34;;;;;;;0.40;0.40;;;;;;;;;;5016536;28;20091;-72
2021/07/21 08:30:00;;;;;;;0.20;0.20;;;;;;;;;;5016681;28;20034;-72
2021/07/21 08:32:26;;;;;;;0.77;0.77;;;;;;;;;;5016323;28;20208;-72
2021/07/21 08:34:52;;;;;;;0.47;0.47;;;;;;;;;;5016254;28;20563;-72
2021/07/21 08:37:19;;;;;;;3.00;0.30;;;;;;;;;;5016447;28;20077;-72
2021/07/21 08:39:45;;;;;;;0.22;0.22;;;;;;;;;;5023673;28;20091;-73
2021/07/21 08:42:11;;;;;;;0.22;0.22;;;;;;;;;;5034603;28;20396;-73
2021/07/21 08:44:38;;;;;;;0.20;0.20;;;;;;;;;;5036097;28;20069;-73
2021/07/21 08:47:08;;;;;;;0.10;0.10;;;;;;;;;;5035231;28;20049;-72
2021/07/21 08:49:34;;;;;;;0.15;0.15;;;;;;;;;;5033840;28;20504;-72
2021/07/21 08:52:02;;;;;;;0.65;0.22;;;;;;;;;;5034312;28;20045;-71
2021/07/21 08:54:28;;;;;;;0.30;0.30;;;;;;;;;;5035637;28;20033;-72
2021/07/21 08:56:57;;;;;;;0.30;0.30;;;;;;;;;;5035370;28;20083;-72
2021/07/21 08:59:24;;;;;;;0.25;0.25;;;;;;;;;;5035807;28;20046;-72
2021/07/21 09:01:50;;;;;;;0.30;0.30;;;;;;;;;;5035706;28;20037;-71
2021/07/21 09:04:16;;;;;;;0.57;0.57;;;;;;;;;;5035589;28;20041;-72
2021/07/21 09:06:43;;;;;;;0.20;0.20;;;;;;;;;;5036376;28;20136;-72
2021/07/21 09:09:09;;;;;;;0.30;0.30;;;;;;;;;;5035299;28;20041;-72
2021/07/21 09:11:36;;;;;;;0.20;0.20;;;;;;;;;;5035764;28;20495;-72
2021/07/21 09:14:03;;;;;;;0.25;0.25;;;;;;;;;;5035054;28;20582;-72
2021/07/21 09:16:29;;;;;;;0.20;0.20;;;;;;;;;;5035495;28;20095;-72
2021/07/21 09:18:58;;;;;;;0.28;0.28;;;;;;;;;;5035408;28;20411;-72
2021/07/21 09:21:25;;;;;;;1.08;0.57;;;;;;;;;;5035509;28;20568;-72
2021/07/21 09:23:53;;;;;;;2.10;0.80;;;;;;;;;;5035381;28;20096;-71
2021/07/21 09:26:25;;;;;;;0.47;0.47;;;;;;;;;;5034611;28;20041;-71
2021/07/21 09:28:51;;;;;;;0.35;0.32;;;;;;;;;;5035261;28;20037;-72
2021/07/21 09:31:31;;;;;;;0.22;0.22;;;;;;;;;;5035216;28;20041;-71
2021/07/21 09:33:57;;;;;;;0.30;0.30;;;;;;;;;;5034830;28;20049;-72
2021/07/21 09:36:24;;;;;;;0.98;0.40;;;;;;;;;;5035110;28;20299;-72
2021/07/21 09:38:51;;;;;;;0.75;0.75;;;;;;;;;;5034811;28;20497;-72
2021/07/21 09:41:18;;;;;;;0.30;0.30;;;;;;;;;;5034473;28;20041;-72
2021/07/21 09:43:44;;;;;;;0.22;0.22;;;;;;;;;;5034751;28;20523;-71
2021/07/21 09:46:12;;;;;;;0.30;0.30;;;;;;;;;;5034627;28;20084;-72
2021/07/21 09:48:39;;;;;;;0.52;0.52;;;;;;;;;;5034869;28;20159;-72
2021/07/21 09:51:06;;;;;;;0.20;0.20;;;;;;;;;;5034873;28;20055;-72
2021/07/21 09:53:41;;;;;;;0.40;0.40;;;;;;;;;;5034666;28;20514;-72
2021/07/21 09:56:08;;;;;;;0.57;0.57;;;;;;;;;;5034871;28;20128;-72
2021/07/21 09:58:34;;;;;;;0.47;0.47;;;;;;;;;;5034603;28;20484;-72
2021/07/21 10:01:01;;;;;;;0.28;0.28;;;;;;;;;;5034495;28;20045;-72
2021/07/21 10:03:29;;;;;;;2.13;1.05;;;;;;;;;;5034663;28;20064;-71
2021/07/21 10:05:55;;;;;;;0.40;0.40;;;;;;;;;;5034126;28;20073;-72
2021/07/21 10:08:25;;;;;;;3.05;0.50;;;;;;;;;;5034553;28;20037;-71
2021/07/21 10:10:52;;;;;;;0.30;0.30;;;;;;;;;;5022520;28;20497;-72
2021/07/21 10:13:18;;;;;;;0.70;0.70;;;;;;;;;;5032982;28;20061;-72
2021/07/21 10:15:46;;;;;;;0.47;0.47;;;;;;;;;;5032536;28;20091;-72
2021/07/21 10:18:17;;;;;;;0.55;0.55;;;;;;;;;;5033187;28;20041;-72
2021/07/21 10:20:44;;;;;;;0.73;0.60;;;;;;;;;;5034055;28;20396;-73
2021/07/21 10:23:11;;;;;;;0.40;0.40;;;;;;;;;;5034501;28;20073;-71
2021/07/21 10:25:37;;;;;;;0.40;0.40;;;;;;;;;;5034370;28;20100;-72
2021/07/21 10:28:04;;;;;;;0.50;0.50;;;;;;;;;;5034749;28;20041;-72
2021/07/21 10:30:31;;;;;;;8.30;1.38;;;;;;;;;;5035019;28;20045;-71
2021/07/21 10:32:58;;;;;;;1.38;0.50;;;;;;;;;;5033933;28;20041;-71
2021/07/21 10:35:25;;;;;;;0.55;0.40;;;;;;;;;;5031101;28;20508;-71
2021/07/21 10:37:54;;;;;;;0.20;0.20;;;;;;;;;;5035110;28;20116;-71
2021/07/21 10:40:30;;;;;;;0.77;0.77;;;;;;;;;;5037391;28;20139;-71
2021/07/21 10:42:57;;;;;;;2.15;0.60;;;;;;;;;;5038684;28;20045;-71
2021/07/21 10:45:31;;;;;;;0.95;0.80;;;;;;;;;;5037459;28;20095;-71
2021/07/21 10:48:08;;;;;;;1.80;0.95;;;;;;;;;;5038582;28;20099;-72
2021/07/21 10:59:11;;;;;;;0.50;0.50;;;;;;;;;;5037653;28;20045;-71
2021/07/21 11:01:39;;;;;;;0.77;0.75;;;;;;;;;;5038126;28;20132;-74
2021/07/21 11:04:05;;;;;;;0.20;0.20;;;;;;;;;;5037811;28;20038;-72
2021/07/21 11:06:41;;;;;;;2.30;1.30;;;;;;;;;;5037554;28;20203;-72
2021/07/21 11:09:15;;;;;;;2.58;0.88;;;;;;;;;;5037829;28;20033;-72
2021/07/21 11:11:41;;;;;;;0.93;0.88;;;;;;;;;;5037855;28;20057;-72
2021/07/21 11:14:09;;;;;;;0.50;0.50;;;;;;;;;;5038035;28;20073;-72
2021/07/21 11:16:38;;;;;;;0.52;0.52;;;;;;;;;;5038610;28;20065;-72
2021/07/21 11:19:34;;;;;;;0.52;0.50;;;;;;;;;;5037549;28;20052;-72
2021/07/21 11:22:04;;;;;;;1.15;0.85;;;;;;;;;;5041100;28;20043;-72
2021/07/21 11:24:50;;;;;;;0.43;0.43;;;;;;;;;;5037970;28;20041;-72
2021/07/21 11:27:36;;;;;;;0.35;0.35;;;;;;;;;;5037629;28;20046;-72
2021/07/21 11:30:03;;;;;;;0.45;0.45;;;;;;;;;;5037592;28;20095;-72
2021/07/21 11:32:30;;;;;;;0.88;0.88;;;;;;;;;;5037990;28;20409;-72
2021/07/21 11:34:56;;;;;;;0.45;0.45;;;;;;;;;;5037475;28;20469;-72
2021/07/21 11:37:30;;;;;;;0.40;0.40;;;;;;;;;;5037662;28;20041;-72
2021/07/21 11:39:57;;;;;;;0.75;0.75;;;;;;;;;;5037246;28;20045;-72
2021/07/21 11:42:23;;;;;;;0.30;0.30;;;;;;;;;;5038065;28;20037;-72
2021/07/21 11:44:50;;;;;;;0.30;0.30;;;;;;;;;;5037573;28;20483;-72
2021/07/21 11:47:18;;;;;;;0.40;0.40;;;;;;;;;;5037143;28;20146;-71
2021/07/21 11:49:48;;;;;;;0.93;0.70;;;;;;;;;;5036323;28;20556;-72
2021/07/21 11:52:15;;;;;;;0.38;0.38;;;;;;;;;;5037641;28;20112;-72
2021/07/21 11:54:41;;;;;;;0.32;0.32;;;;;;;;;;5037128;28;20045;-72
2021/07/21 11:57:09;;;;;;;0.85;0.38;;;;;;;;;;5037033;28;20045;-72
2021/07/21 11:59:39;;;;;;;0.98;0.65;;;;;;;;;;5037072;28;20131;-72
2021/07/21 12:02:06;;;;;;;0.40;0.40;;;;;;;;;;5037268;28;20048;-72
2021/07/21 12:04:32;;;;;;;0.35;0.35;;;;;;;;;;5037438;28;20041;-72
2021/07/21 12:06:58;;;;;;;0.60;0.60;;;;;;;;;;5037244;28;20472;-72
2021/07/21 12:09:34;;;;;;;0.30;0.30;;;;;;;;;;5037181;28;20045;-72
2021/07/21 12:12:01;;;;;;;0.70;0.70;;;;;;;;;;5036967;28;20033;-72
2021/07/21 12:14:27;;;;;;;0.43;0.43;;;;;;;;;;5036862;28;20646;-72
2021/07/21 12:17:01;;;;;;;1.27;0.73;;;;;;;;;;5036598;28;20103;-72
2021/07/21 12:19:27;;;;;;;0.95;0.95;;;;;;;;;;5036950;28;20060;-72
2021/07/21 12:22:05;;;;;;;0.30;0.30;;;;;;;;;;5036587;28;20033;-72
2021/07/21 12:24:42;;;;;;;0.40;0.40;;;;;;;;;;5037137;28;20115;-72
2021/07/21 12:27:09;;;;;;;0.38;0.38;;;;;;;;;;5036113;28;20476;-72
2021/07/21 12:29:35;;;;;;;2.13;0.93;;;;;;;;;;5036248;28;20050;-73
2021/07/21 12:32:07;;;;;;;0.50;0.50;;;;;;;;;;5036369;28;20059;-73
2021/07/21 12:34:34;;;;;;;0.55;0.50;;;;;;;;;;5036675;28;20044;-73
2021/07/21 12:37:01;;;;;;;0.75;0.75;;;;;;;;;;5036565;28;20555;-73
2021/07/21 12:39:28;;;;;;;0.95;0.95;;;;;;;;;;5036319;28;20045;-72
2021/07/21 12:41:55;;;;;;;0.82;0.82;;;;;;;;;;5036111;28;20037;-72
2021/07/21 12:44:28;;;;;;;0.40;0.40;;;;;;;;;;5036217;28;20412;-73
2021/07/21 12:47:13;;;;;;;0.80;0.70;;;;;;;;;;5035809;28;20413;-72
2021/07/21 12:49:39;;;;;;;0.40;0.40;;;;;;;;;;5035532;28;20038;-72
2021/07/21 12:52:16;;;;;;;0.80;0.77;;;;;;;;;;5036520;28;20087;-72
2021/07/21 12:54:47;;;;;;;1.27;1.17;;;;;;;;;;5035779;28;20064;-73
2021/07/21 12:57:13;;;;;;;1.38;0.82;;;;;;;;;;5035896;28;20072;-72
2021/07/21 12:59:39;;;;;;;1.13;0.30;;;;;;;;;;5035180;28;20045;-72
2021/07/21 13:02:15;;;;;;;1.13;0.63;;;;;;;;;;5035772;28;20064;-73
2021/07/21 13:04:42;;;;;;;3.15;1.88;;;;;;;;;;5035491;28;20038;-73
2021/07/21 13:07:09;;;;;;;0.55;0.55;;;;;;;;;;5035565;28;20051;-73
2021/07/21 13:09:38;;;;;;;0.75;0.75;;;;;;;;;;5036007;28;20103;-73
2021/07/21 13:12:14;;;;;;;0.77;0.43;;;;;;;;;;5035590;28;20492;-72
2021/07/21 13:14:41;;;;;;;0.68;0.68;;;;;;;;;;5036156;28;20069;-73
2021/07/21 13:17:11;;;;;;;1.67;0.82;;;;;;;;;;5036023;28;20056;-72
2021/07/21 13:19:37;;;;;;;0.63;0.63;;;;;;;;;;5036086;28;20049;-73
2021/07/21 13:22:03;;;;;;;1.42;0.55;;;;;;;;;;5035870;28;20037;-72
2021/07/21 13:24:30;;;;;;;0.55;0.55;;;;;;;;;;5035407;28;20052;-72
2021/07/21 13:27:00;;;;;;;0.50;0.50;;;;;;;;;;5035169;28;20045;-71
2021/07/21 13:29:28;;;;;;;0.63;0.63;;;;;;;;;;5035266;28;20480;-72
2021/07/21 13:31:54;;;;;;;1.83;0.80;;;;;;;;;;5035799;28;20037;-72
2021/07/21 13:34:26;;;;;;;0.70;0.70;;;;;;;;;;5035035;28;20041;-72
2021/07/21 13:36:52;;;;;;;0.68;0.68;;;;;;;;;;5035475;28;20076;-72
2021/07/21 13:39:19;;;;;;;3.05;1.10;;;;;;;;;;5035162;28;20500;-72
2021/07/21 13:41:58;;;;;;;0.30;0.30;;;;;;;;;;5035357;28;20480;-72
2021/07/21 13:44:28;;;;;;;0.52;0.52;;;;;;;;;;5035298;28;20045;-72
2021/07/21 13:46:55;;;;;;;1.02;1.02;;;;;;;;;;5035152;28;20049;-72
2021/07/21 13:49:41;;;;;;;0.63;0.63;;;;;;;;;;5035002;28;20042;-72
2021/07/21 13:52:09;;;;;;;0.45;0.45;;;;;;;;;;5035553;28;20095;-73
2021/07/21 13:54:39;;;;;;;0.55;0.50;;;;;;;;;;5034886;28;20103;-72
2021/07/21 13:57:07;;;;;;;0.93;0.93;;;;;;;;;;5035187;28;20045;-73
2021/07/21 13:59:34;;;;;;;1.65;0.93;;;;;;;;;;5035118;28;20095;-73
2021/07/21 14:02:00;;;;;;;0.80;0.75;;;;;;;;;;5034765;28;20115;-73
2021/07/21 14:04:27;;;;;;;1.98;0.98;;;;;;;;;;5034581;28;20121;-73
2021/07/21 14:06:54;;;;;;;0.45;0.45;;;;;;;;;;5034375;28;20136;-73
2021/07/21 14:09:20;;;;;;;0.35;0.35;;;;;;;;;;5034138;28;20088;-73
2021/07/21 14:11:48;;;;;;;0.40;0.40;;;;;;;;;;5033836;28;20369;-73
2021/07/21 14:14:14;;;;;;;0.68;0.68;;;;;;;;;;5034928;28;20417;-73
2021/07/21 14:16:41;;;;;;;2.38;0.82;;;;;;;;;;5034549;28;20037;-73
2021/07/21 14:19:07;;;;;;;0.73;0.73;;;;;;;;;;5034715;28;20567;-73
2021/07/21 14:21:34;;;;;;;0.45;0.45;;;;;;;;;;5034526;28;20116;-73
2021/07/21 14:24:00;;;;;;;4.68;1.88;;;;;;;;;;5034707;28;20068;-73
2021/07/21 14:26:27;;;;;;;0.85;0.85;;;;;;;;;;5034400;28;20076;-73
2021/07/21 14:28:55;;;;;;;0.63;0.63;;;;;;;;;;5034748;28;20102;-73
2021/07/21 14:31:22;;;;;;;0.63;0.63;;;;;;;;;;5034469;28;20492;-73
2021/07/21 14:33:49;;;;;;;0.80;0.65;;;;;;;;;;5034274;28;20033;-73
2021/07/21 14:36:15;;;;;;;1.60;0.85;;;;;;;;;;5033359;28;20040;-73
2021/07/21 14:38:41;;;;;;;0.77;0.77;;;;;;;;;;5034220;28;20041;-73
2021/07/21 14:41:08;;;;;;;0.90;0.90;;;;;;;;;;5034577;28;20048;-73
2021/07/21 14:43:35;;;;;;;3.20;0.80;;;;;;;;;;5034608;28;20088;-73
2021/07/21 14:46:02;;;;;;;0.52;0.52;;;;;;;;;;5034167;28;20128;-73
2021/07/21 14:48:28;;;;;;;1.35;1.10;;;;;;;;;;5034582;28;20049;-73
2021/07/21 14:50:54;;;;;;;0.50;0.50;;;;;;;;;;5034470;28;20042;-73
2021/07/21 14:53:20;;;;;;;0.60;0.60;;;;;;;;;;5034172;28;20412;-73
2021/07/21 14:55:47;;;;;;;0.60;0.60;;;;;;;;;;5034449;28;20116;-73
2021/07/21 14:58:13;;;;;;;0.70;0.70;;;;;;;;;;5034439;28;20046;-73